sensor_id;sensor_type;location;lat;lon;timestamp;P1;durP1;ratioP1;P2;durP2;ratioP2
16906;SDS011;8570;52.380;4.654;2023-11-18T00:02:30;21.67;;;14.17;;
16906;SDS011;8570;52.380;4.654;2023-11-18T00:07:35;18.90;;;13.00;;
16906;SDS011;8570;52.380;4.654;2023-11-18T00:12:37;19.47;;;12.93;;
16906;SDS011;8570;52.380;4.654;2023-11-18T00:17:41;17.47;;;13.10;;
16906;SDS011;8570;52.380;4.654;2023-11-18T00:22:44;18.53;;;12.60;;
16906;SDS011;8570;52.380;4.654;2023-11-18T00:27:46;18.77;;;12.90;;
16906;SDS011;8570;52.380;4.654;2023-11-18T00:32:48;18.00;;;12.40;;
16906;SDS011;8570;52.380;4.654;2023-11-18T00:37:51;19.07;;;12.83;;
16906;SDS011;8570;52.380;4.654;2023-11-18T00:42:53;23.70;;;13.43;;
16906;SDS011;8570;52.380;4.654;2023-11-18T00:47:55;20.03;;;13.47;;
16906;SDS011;8570;52.380;4.654;2023-11-18T00:52:58;19.87;;;12.80;;
16906;SDS011;8570;52.380;4.654;2023-11-18T00:58:00;20.83;;;13.50;;
16906;SDS011;8570;52.380;4.654;2023-11-18T01:03:02;23.53;;;13.70;;
16906;SDS011;8570;52.380;4.654;2023-11-18T01:08:05;21.53;;;14.00;;
16906;SDS011;8570;52.380;4.654;2023-11-18T01:13:08;18.63;;;14.27;;
16906;SDS011;8570;52.380;4.654;2023-11-18T01:18:10;21.37;;;14.63;;
16906;SDS011;8570;52.380;4.654;2023-11-18T01:23:14;20.17;;;15.07;;
16906;SDS011;8570;52.380;4.654;2023-11-18T01:28:16;20.77;;;15.07;;
16906;SDS011;8570;52.380;4.654;2023-11-18T01:33:18;23.63;;;15.10;;
16906;SDS011;8570;52.380;4.654;2023-11-18T01:38:21;22.23;;;15.93;;
16906;SDS011;8570;52.380;4.654;2023-11-18T01:43:23;23.10;;;16.13;;
16906;SDS011;8570;52.380;4.654;2023-11-18T01:48:25;23.23;;;17.20;;
16906;SDS011;8570;52.380;4.654;2023-11-18T01:53:30;26.10;;;18.00;;
16906;SDS011;8570;52.380;4.654;2023-11-18T01:58:33;26.57;;;18.40;;
16906;SDS011;8570;52.380;4.654;2023-11-18T02:03:38;27.27;;;17.67;;
16906;SDS011;8570;52.380;4.654;2023-11-18T02:08:43;26.87;;;18.40;;
16906;SDS011;8570;52.380;4.654;2023-11-18T02:13:47;27.80;;;19.30;;
16906;SDS011;8570;52.380;4.654;2023-11-18T02:18:51;26.90;;;17.70;;
16906;SDS011;8570;52.380;4.654;2023-11-18T02:23:57;28.30;;;17.73;;
16906;SDS011;8570;52.380;4.654;2023-11-18T02:29:00;29.47;;;18.73;;
16906;SDS011;8570;52.380;4.654;2023-11-18T02:34:04;28.00;;;17.90;;
16906;SDS011;8570;52.380;4.654;2023-11-18T02:39:11;23.73;;;17.80;;
16906;SDS011;8570;52.380;4.654;2023-11-18T02:44:18;28.57;;;17.30;;
16906;SDS011;8570;52.380;4.654;2023-11-18T02:49:23;29.97;;;17.47;;
16906;SDS011;8570;52.380;4.654;2023-11-18T02:54:25;23.27;;;16.17;;
16906;SDS011;8570;52.380;4.654;2023-11-18T02:59:28;24.43;;;16.67;;
16906;SDS011;8570;52.380;4.654;2023-11-18T03:04:31;29.50;;;17.77;;
16906;SDS011;8570;52.380;4.654;2023-11-18T03:09:34;27.57;;;17.90;;
16906;SDS011;8570;52.380;4.654;2023-11-18T03:14:39;22.37;;;16.27;;
16906;SDS011;8570;52.380;4.654;2023-11-18T03:19:42;30.37;;;16.83;;
16906;SDS011;8570;52.380;4.654;2023-11-18T03:24:43;25.33;;;16.80;;
16906;SDS011;8570;52.380;4.654;2023-11-18T03:29:49;24.33;;;16.20;;
16906;SDS011;8570;52.380;4.654;2023-11-18T03:34:51;24.17;;;15.87;;
16906;SDS011;8570;52.380;4.654;2023-11-18T03:39:54;22.03;;;15.17;;
16906;SDS011;8570;52.380;4.654;2023-11-18T03:44:57;23.63;;;15.80;;
16906;SDS011;8570;52.380;4.654;2023-11-18T03:49:59;21.40;;;15.83;;
16906;SDS011;8570;52.380;4.654;2023-11-18T03:55:02;19.70;;;15.40;;
16906;SDS011;8570;52.380;4.654;2023-11-18T04:00:06;23.63;;;16.27;;
16906;SDS011;8570;52.380;4.654;2023-11-18T04:05:11;27.17;;;16.23;;
16906;SDS011;8570;52.380;4.654;2023-11-18T04:10:13;23.67;;;16.20;;
16906;SDS011;8570;52.380;4.654;2023-11-18T04:15:19;24.10;;;16.13;;
16906;SDS011;8570;52.380;4.654;2023-11-18T04:20:21;28.10;;;16.13;;
16906;SDS011;8570;52.380;4.654;2023-11-18T04:25:23;22.83;;;15.37;;
16906;SDS011;8570;52.380;4.654;2023-11-18T04:30:27;23.47;;;14.57;;
16906;SDS011;8570;52.380;4.654;2023-11-18T04:35:28;23.37;;;13.57;;
16906;SDS011;8570;52.380;4.654;2023-11-18T04:40:31;21.07;;;13.30;;
16906;SDS011;8570;52.380;4.654;2023-11-18T04:45:34;27.33;;;13.90;;
16906;SDS011;8570;52.380;4.654;2023-11-18T04:50:39;24.47;;;13.43;;
16906;SDS011;8570;52.380;4.654;2023-11-18T04:55:42;22.73;;;13.57;;
16906;SDS011;8570;52.380;4.654;2023-11-18T05:00:46;25.03;;;13.67;;
16906;SDS011;8570;52.380;4.654;2023-11-18T05:05:48;22.67;;;13.77;;
16906;SDS011;8570;52.380;4.654;2023-11-18T05:10:50;18.53;;;13.53;;
16906;SDS011;8570;52.380;4.654;2023-11-18T05:15:53;24.03;;;13.43;;
16906;SDS011;8570;52.380;4.654;2023-11-18T05:20:55;22.10;;;14.37;;
16906;SDS011;8570;52.380;4.654;2023-11-18T05:25:58;22.07;;;14.93;;
16906;SDS011;8570;52.380;4.654;2023-11-18T05:31:02;22.33;;;13.73;;
16906;SDS011;8570;52.380;4.654;2023-11-18T05:36:05;26.43;;;15.43;;
16906;SDS011;8570;52.380;4.654;2023-11-18T05:41:08;26.80;;;15.77;;
16906;SDS011;8570;52.380;4.654;2023-11-18T05:46:18;23.00;;;15.07;;
16906;SDS011;8570;52.380;4.654;2023-11-18T05:51:23;25.60;;;15.97;;
16906;SDS011;8570;52.380;4.654;2023-11-18T05:56:26;22.50;;;15.83;;
16906;SDS011;8570;52.380;4.654;2023-11-18T06:01:30;25.27;;;16.37;;
16906;SDS011;8570;52.380;4.654;2023-11-18T06:06:31;23.10;;;16.10;;
16906;SDS011;8570;52.380;4.654;2023-11-18T06:11:33;23.60;;;16.57;;
16906;SDS011;8570;52.380;4.654;2023-11-18T06:16:38;24.63;;;16.67;;
16906;SDS011;8570;52.380;4.654;2023-11-18T06:21:40;22.27;;;16.83;;
16906;SDS011;8570;52.380;4.654;2023-11-18T06:26:42;29.33;;;17.57;;
16906;SDS011;8570;52.380;4.654;2023-11-18T06:31:46;28.33;;;18.03;;
16906;SDS011;8570;52.380;4.654;2023-11-18T06:36:48;29.13;;;17.37;;
16906;SDS011;8570;52.380;4.654;2023-11-18T06:41:50;24.63;;;17.10;;
16906;SDS011;8570;52.380;4.654;2023-11-18T06:46:54;26.70;;;17.30;;
16906;SDS011;8570;52.380;4.654;2023-11-18T06:51:56;24.87;;;16.97;;
16906;SDS011;8570;52.380;4.654;2023-11-18T06:56:58;22.27;;;16.60;;
16906;SDS011;8570;52.380;4.654;2023-11-18T07:02:02;25.87;;;17.73;;
16906;SDS011;8570;52.380;4.654;2023-11-18T07:07:06;24.67;;;16.30;;
16906;SDS011;8570;52.380;4.654;2023-11-18T07:12:08;25.07;;;16.50;;
16906;SDS011;8570;52.380;4.654;2023-11-18T07:17:12;28.00;;;15.70;;
16906;SDS011;8570;52.380;4.654;2023-11-18T07:22:14;24.63;;;16.13;;
16906;SDS011;8570;52.380;4.654;2023-11-18T07:27:15;29.20;;;15.00;;
16906;SDS011;8570;52.380;4.654;2023-11-18T07:32:19;23.47;;;15.23;;
16906;SDS011;8570;52.380;4.654;2023-11-18T07:37:21;30.57;;;15.83;;
16906;SDS011;8570;52.380;4.654;2023-11-18T07:42:23;29.57;;;15.33;;
16906;SDS011;8570;52.380;4.654;2023-11-18T07:47:27;25.03;;;14.50;;
16906;SDS011;8570;52.380;4.654;2023-11-18T07:52:31;32.43;;;14.70;;
16906;SDS011;8570;52.380;4.654;2023-11-18T07:57:33;27.47;;;15.27;;
16906;SDS011;8570;52.380;4.654;2023-11-18T08:02:37;29.03;;;15.93;;
16906;SDS011;8570;52.380;4.654;2023-11-18T08:07:40;29.70;;;15.00;;
16906;SDS011;8570;52.380;4.654;2023-11-18T08:12:44;32.70;;;15.27;;
16906;SDS011;8570;52.380;4.654;2023-11-18T08:17:48;27.67;;;14.17;;
16906;SDS011;8570;52.380;4.654;2023-11-18T08:22:50;28.53;;;14.40;;
16906;SDS011;8570;52.380;4.654;2023-11-18T08:27:52;24.93;;;13.67;;
16906;SDS011;8570;52.380;4.654;2023-11-18T08:32:55;24.03;;;14.33;;
16906;SDS011;8570;52.380;4.654;2023-11-18T08:37:58;23.30;;;13.73;;
16906;SDS011;8570;52.380;4.654;2023-11-18T08:43:01;25.97;;;13.73;;
16906;SDS011;8570;52.380;4.654;2023-11-18T08:48:08;24.60;;;13.33;;
16906;SDS011;8570;52.380;4.654;2023-11-18T08:53:10;23.37;;;11.83;;
16906;SDS011;8570;52.380;4.654;2023-11-18T08:58:12;29.47;;;12.37;;
16906;SDS011;8570;52.380;4.654;2023-11-18T09:03:21;22.70;;;11.73;;
16906;SDS011;8570;52.380;4.654;2023-11-18T09:08:28;19.00;;;10.67;;
16906;SDS011;8570;52.380;4.654;2023-11-18T09:13:32;24.90;;;11.47;;
16906;SDS011;8570;52.380;4.654;2023-11-18T09:18:37;20.90;;;11.87;;
16906;SDS011;8570;52.380;4.654;2023-11-18T09:23:40;20.63;;;10.60;;
16906;SDS011;8570;52.380;4.654;2023-11-18T09:28:43;23.60;;;11.20;;
16906;SDS011;8570;52.380;4.654;2023-11-18T09:33:47;18.77;;;9.87;;
16906;SDS011;8570;52.380;4.654;2023-11-18T09:38:53;19.60;;;10.33;;
16906;SDS011;8570;52.380;4.654;2023-11-18T09:43:55;17.67;;;9.00;;
16906;SDS011;8570;52.380;4.654;2023-11-18T09:49:06;13.87;;;9.27;;
16906;SDS011;8570;52.380;4.654;2023-11-18T09:54:18;21.17;;;9.37;;
16906;SDS011;8570;52.380;4.654;2023-11-18T09:59:33;17.87;;;8.97;;
16906;SDS011;8570;52.380;4.654;2023-11-18T10:04:46;20.63;;;8.93;;
16906;SDS011;8570;52.380;4.654;2023-11-18T10:09:50;22.33;;;10.03;;
16906;SDS011;8570;52.380;4.654;2023-11-18T10:14:57;17.23;;;8.70;;
16906;SDS011;8570;52.380;4.654;2023-11-18T10:20:00;16.80;;;8.80;;
16906;SDS011;8570;52.380;4.654;2023-11-18T10:25:12;16.30;;;9.70;;
16906;SDS011;8570;52.380;4.654;2023-11-18T10:30:27;14.47;;;8.37;;
16906;SDS011;8570;52.380;4.654;2023-11-18T10:35:33;17.60;;;7.90;;
16906;SDS011;8570;52.380;4.654;2023-11-18T10:40:36;15.57;;;8.50;;
16906;SDS011;8570;52.380;4.654;2023-11-18T10:45:38;15.97;;;8.30;;
16906;SDS011;8570;52.380;4.654;2023-11-18T10:50:42;17.40;;;7.47;;
16906;SDS011;8570;52.380;4.654;2023-11-18T11:01:35;13.80;;;7.00;;
16906;SDS011;8570;52.380;4.654;2023-11-18T11:06:44;13.00;;;6.80;;
16906;SDS011;8570;52.380;4.654;2023-11-18T11:11:53;12.37;;;5.87;;
16906;SDS011;8570;52.380;4.654;2023-11-18T11:16:56;16.57;;;5.80;;
16906;SDS011;8570;52.380;4.654;2023-11-18T11:22:12;10.20;;;5.63;;
16906;SDS011;8570;52.380;4.654;2023-11-18T11:27:22;11.90;;;5.43;;
16906;SDS011;8570;52.380;4.654;2023-11-18T11:32:39;11.57;;;5.13;;
16906;SDS011;8570;52.380;4.654;2023-11-18T11:37:49;13.83;;;5.07;;
16906;SDS011;8570;52.380;4.654;2023-11-18T11:42:53;9.97;;;4.10;;
16906;SDS011;8570;52.380;4.654;2023-11-18T11:47:57;8.60;;;4.63;;
16906;SDS011;8570;52.380;4.654;2023-11-18T11:53:16;12.13;;;4.63;;
16906;SDS011;8570;52.380;4.654;2023-11-18T11:58:29;6.50;;;4.10;;
16906;SDS011;8570;52.380;4.654;2023-11-18T12:03:32;7.77;;;4.20;;
16906;SDS011;8570;52.380;4.654;2023-11-18T12:08:49;10.30;;;3.97;;
16906;SDS011;8570;52.380;4.654;2023-11-18T12:14:02;7.20;;;3.60;;
16906;SDS011;8570;52.380;4.654;2023-11-18T12:19:38;8.07;;;4.00;;
16906;SDS011;8570;52.380;4.654;2023-11-18T12:30:40;7.60;;;3.80;;
16906;SDS011;8570;52.380;4.654;2023-11-18T12:41:33;7.13;;;3.40;;
16906;SDS011;8570;52.380;4.654;2023-11-18T12:46:50;6.70;;;3.10;;
16906;SDS011;8570;52.380;4.654;2023-11-18T12:51:57;3.77;;;2.57;;
16906;SDS011;8570;52.380;4.654;2023-11-18T12:57:04;4.00;;;2.90;;
16906;SDS011;8570;52.380;4.654;2023-11-18T13:02:16;3.10;;;2.80;;
16906;SDS011;8570;52.380;4.654;2023-11-18T13:07:20;2.63;;;2.43;;
16906;SDS011;8570;52.380;4.654;2023-11-18T13:12:28;5.13;;;2.70;;
16906;SDS011;8570;52.380;4.654;2023-11-18T13:17:34;8.40;;;3.40;;
16906;SDS011;8570;52.380;4.654;2023-11-18T13:28:02;4.23;;;2.70;;
16906;SDS011;8570;52.380;4.654;2023-11-18T13:33:06;2.67;;;2.10;;
16906;SDS011;8570;52.380;4.654;2023-11-18T13:38:11;2.93;;;1.90;;
16906;SDS011;8570;52.380;4.654;2023-11-18T13:43:15;3.23;;;2.30;;
16906;SDS011;8570;52.380;4.654;2023-11-18T13:48:17;3.00;;;2.17;;
16906;SDS011;8570;52.380;4.654;2023-11-18T13:53:19;2.00;;;1.77;;
16906;SDS011;8570;52.380;4.654;2023-11-18T13:58:23;4.40;;;2.10;;
16906;SDS011;8570;52.380;4.654;2023-11-18T14:03:28;2.87;;;2.00;;
16906;SDS011;8570;52.380;4.654;2023-11-18T14:08:32;4.07;;;3.40;;
16906;SDS011;8570;52.380;4.654;2023-11-18T14:13:36;3.23;;;1.90;;
16906;SDS011;8570;52.380;4.654;2023-11-18T14:18:38;2.77;;;2.40;;
16906;SDS011;8570;52.380;4.654;2023-11-18T14:23:41;4.10;;;2.30;;
16906;SDS011;8570;52.380;4.654;2023-11-18T14:28:44;3.17;;;2.10;;
16906;SDS011;8570;52.380;4.654;2023-11-18T14:33:46;2.37;;;1.90;;
16906;SDS011;8570;52.380;4.654;2023-11-18T14:38:48;3.50;;;1.90;;
16906;SDS011;8570;52.380;4.654;2023-11-18T14:43:52;2.53;;;2.27;;
16906;SDS011;8570;52.380;4.654;2023-11-18T14:48:54;2.80;;;2.60;;
16906;SDS011;8570;52.380;4.654;2023-11-18T14:53:56;2.37;;;1.70;;
16906;SDS011;8570;52.380;4.654;2023-11-18T14:59:01;3.07;;;2.43;;
16906;SDS011;8570;52.380;4.654;2023-11-18T15:04:05;1.83;;;1.73;;
16906;SDS011;8570;52.380;4.654;2023-11-18T15:09:07;2.47;;;1.90;;
16906;SDS011;8570;52.380;4.654;2023-11-18T15:14:12;2.50;;;2.00;;
16906;SDS011;8570;52.380;4.654;2023-11-18T15:19:14;2.23;;;1.70;;
16906;SDS011;8570;52.380;4.654;2023-11-18T15:24:16;2.27;;;1.80;;
16906;SDS011;8570;52.380;4.654;2023-11-18T15:29:19;3.13;;;2.07;;
16906;SDS011;8570;52.380;4.654;2023-11-18T15:34:21;2.43;;;1.97;;
16906;SDS011;8570;52.380;4.654;2023-11-18T15:39:23;2.03;;;1.90;;
16906;SDS011;8570;52.380;4.654;2023-11-18T15:44:26;2.47;;;2.27;;
16906;SDS011;8570;52.380;4.654;2023-11-18T15:49:29;3.50;;;2.77;;
16906;SDS011;8570;52.380;4.654;2023-11-18T15:54:31;2.60;;;2.40;;
16906;SDS011;8570;52.380;4.654;2023-11-18T15:59:34;5.10;;;3.07;;
16906;SDS011;8570;52.380;4.654;2023-11-18T16:04:36;4.97;;;2.77;;
16906;SDS011;8570;52.380;4.654;2023-11-18T16:09:38;4.07;;;3.60;;
16906;SDS011;8570;52.380;4.654;2023-11-18T16:14:41;4.40;;;4.00;;
16906;SDS011;8570;52.380;4.654;2023-11-18T16:19:43;4.90;;;4.40;;
16906;SDS011;8570;52.380;4.654;2023-11-18T16:24:45;6.23;;;4.97;;
16906;SDS011;8570;52.380;4.654;2023-11-18T16:29:50;6.20;;;5.50;;
16906;SDS011;8570;52.380;4.654;2023-11-18T16:34:52;6.27;;;5.63;;
16906;SDS011;8570;52.380;4.654;2023-11-18T16:39:54;5.60;;;5.10;;
16906;SDS011;8570;52.380;4.654;2023-11-18T16:44:57;5.43;;;4.93;;
16906;SDS011;8570;52.380;4.654;2023-11-18T16:50:00;5.50;;;5.00;;
16906;SDS011;8570;52.380;4.654;2023-11-18T16:55:03;6.53;;;5.93;;
16906;SDS011;8570;52.380;4.654;2023-11-18T17:00:08;7.00;;;6.37;;
16906;SDS011;8570;52.380;4.654;2023-11-18T17:05:16;6.90;;;6.20;;
16906;SDS011;8570;52.380;4.654;2023-11-18T17:10:18;7.33;;;6.63;;
16906;SDS011;8570;52.380;4.654;2023-11-18T17:15:24;7.40;;;6.57;;
16906;SDS011;8570;52.380;4.654;2023-11-18T17:20:26;7.87;;;7.13;;
16906;SDS011;8570;52.380;4.654;2023-11-18T17:25:28;8.13;;;7.33;;
16906;SDS011;8570;52.380;4.654;2023-11-18T17:30:32;7.93;;;7.17;;
16906;SDS011;8570;52.380;4.654;2023-11-18T17:35:37;8.90;;;8.00;;
16906;SDS011;8570;52.380;4.654;2023-11-18T17:40:40;8.82;;;7.85;;
16906;SDS011;8570;52.380;4.654;2023-11-18T17:45:43;10.45;;;8.98;;
16906;SDS011;8570;52.380;4.654;2023-11-18T17:50:46;12.38;;;9.82;;
16906;SDS011;8570;52.380;4.654;2023-11-18T17:55:48;12.50;;;10.43;;
16906;SDS011;8570;52.380;4.654;2023-11-18T18:00:53;16.57;;;11.20;;
16906;SDS011;8570;52.380;4.654;2023-11-18T18:05:55;17.10;;;12.10;;
16906;SDS011;8570;52.380;4.654;2023-11-18T18:10:57;21.58;;;11.43;;
16906;SDS011;8570;52.380;4.654;2023-11-18T18:16:00;18.60;;;10.77;;
16906;SDS011;8570;52.380;4.654;2023-11-18T18:21:03;16.30;;;8.02;;
16906;SDS011;8570;52.380;4.654;2023-11-18T18:26:07;17.63;;;6.47;;
16906;SDS011;8570;52.380;4.654;2023-11-18T18:31:11;17.83;;;7.18;;
16906;SDS011;8570;52.380;4.654;2023-11-18T18:36:13;12.25;;;4.88;;
16906;SDS011;8570;52.380;4.654;2023-11-18T18:41:17;20.55;;;5.75;;
16906;SDS011;8570;52.380;4.654;2023-11-18T18:46:21;16.83;;;4.45;;
16906;SDS011;8570;52.380;4.654;2023-11-18T18:51:23;20.73;;;5.30;;
16906;SDS011;8570;52.380;4.654;2023-11-18T18:56:25;17.08;;;6.38;;
16906;SDS011;8570;52.380;4.654;2023-11-18T19:01:29;11.57;;;3.95;;
16906;SDS011;8570;52.380;4.654;2023-11-18T19:06:31;15.63;;;4.70;;
16906;SDS011;8570;52.380;4.654;2023-11-18T19:11:33;12.55;;;4.55;;
16906;SDS011;8570;52.380;4.654;2023-11-18T19:16:36;13.63;;;4.07;;
16906;SDS011;8570;52.380;4.654;2023-11-18T19:21:39;16.13;;;4.22;;
16906;SDS011;8570;52.380;4.654;2023-11-18T19:26:44;17.38;;;4.03;;
16906;SDS011;8570;52.380;4.654;2023-11-18T19:31:48;24.45;;;3.70;;
16906;SDS011;8570;52.380;4.654;2023-11-18T19:36:50;20.42;;;4.22;;
16906;SDS011;8570;52.380;4.654;2023-11-18T19:41:53;22.92;;;4.30;;
16906;SDS011;8570;52.380;4.654;2023-11-18T19:46:57;12.55;;;3.00;;
16906;SDS011;8570;52.380;4.654;2023-11-18T19:52:02;17.10;;;3.97;;
16906;SDS011;8570;52.380;4.654;2023-11-18T19:57:04;19.50;;;3.95;;
16906;SDS011;8570;52.380;4.654;2023-11-18T20:02:10;20.30;;;4.05;;
16906;SDS011;8570;52.380;4.654;2023-11-18T20:07:13;14.77;;;3.80;;
16906;SDS011;8570;52.380;4.654;2023-11-18T20:12:15;32.58;;;5.10;;
16906;SDS011;8570;52.380;4.654;2023-11-18T20:17:19;29.48;;;4.03;;
16906;SDS011;8570;52.380;4.654;2023-11-18T20:22:24;0.10;;;0.10;;
16906;SDS011;8570;52.380;4.654;2023-11-18T20:27:27;0.00;;;0.00;;
16906;SDS011;8570;52.380;4.654;2023-11-18T20:32:30;0.00;;;0.00;;
16906;SDS011;8570;52.380;4.654;2023-11-18T20:37:32;0.00;;;0.00;;
16906;SDS011;8570;52.380;4.654;2023-11-18T20:42:35;0.00;;;0.00;;
16906;SDS011;8570;52.380;4.654;2023-11-18T20:47:42;0.00;;;0.00;;
16906;SDS011;8570;52.380;4.654;2023-11-18T20:52:44;0.00;;;0.00;;
16906;SDS011;8570;52.380;4.654;2023-11-18T20:57:46;0.10;;;0.10;;
16906;SDS011;8570;52.380;4.654;2023-11-18T21:02:50;0.00;;;0.00;;
16906;SDS011;8570;52.380;4.654;2023-11-18T21:07:54;0.05;;;0.05;;
16906;SDS011;8570;52.380;4.654;2023-11-18T21:12:57;0.00;;;0.00;;
16906;SDS011;8570;52.380;4.654;2023-11-18T21:18:09;0.10;;;0.10;;
16906;SDS011;8570;52.380;4.654;2023-11-18T21:23:12;0.00;;;0.00;;
16906;SDS011;8570;52.380;4.654;2023-11-18T21:28:17;0.10;;;0.10;;
16906;SDS011;8570;52.380;4.654;2023-11-18T21:33:22;0.00;;;0.00;;
16906;SDS011;8570;52.380;4.654;2023-11-18T21:38:26;0.00;;;0.00;;
16906;SDS011;8570;52.380;4.654;2023-11-18T21:43:30;0.00;;;0.00;;
16906;SDS011;8570;52.380;4.654;2023-11-18T21:48:34;2.60;;;1.33;;
16906;SDS011;8570;52.380;4.654;2023-11-18T21:53:37;0.13;;;0.13;;
16906;SDS011;8570;52.380;4.654;2023-11-18T21:58:40;0.00;;;0.00;;
16906;SDS011;8570;52.380;4.654;2023-11-18T22:03:48;0.00;;;0.00;;
16906;SDS011;8570;52.380;4.654;2023-11-18T22:08:52;0.00;;;0.00;;
16906;SDS011;8570;52.380;4.654;2023-11-18T22:13:59;3.47;;;0.85;;
16906;SDS011;8570;52.380;4.654;2023-11-18T22:19:04;0.50;;;0.50;;
16906;SDS011;8570;52.380;4.654;2023-11-18T22:24:09;0.08;;;0.08;;
16906;SDS011;8570;52.380;4.654;2023-11-18T22:29:12;0.00;;;0.00;;
16906;SDS011;8570;52.380;4.654;2023-11-18T22:34:16;0.10;;;0.10;;
16906;SDS011;8570;52.380;4.654;2023-11-18T22:39:19;0.20;;;0.20;;
16906;SDS011;8570;52.380;4.654;2023-11-18T22:44:23;0.03;;;0.03;;
16906;SDS011;8570;52.380;4.654;2023-11-18T22:49:27;0.00;;;0.00;;
16906;SDS011;8570;52.380;4.654;2023-11-18T22:54:34;0.00;;;0.00;;
16906;SDS011;8570;52.380;4.654;2023-11-18T22:59:38;0.50;;;0.20;;
16906;SDS011;8570;52.380;4.654;2023-11-18T23:04:43;0.00;;;0.00;;
16906;SDS011;8570;52.380;4.654;2023-11-18T23:09:46;0.00;;;0.00;;
16906;SDS011;8570;52.380;4.654;2023-11-18T23:14:48;0.17;;;0.17;;
16906;SDS011;8570;52.380;4.654;2023-11-18T23:19:54;0.00;;;0.00;;
16906;SDS011;8570;52.380;4.654;2023-11-18T23:24:56;0.30;;;0.30;;
16906;SDS011;8570;52.380;4.654;2023-11-18T23:29:58;0.00;;;0.00;;
16906;SDS011;8570;52.380;4.654;2023-11-18T23:35:02;0.10;;;0.10;;
16906;SDS011;8570;52.380;4.654;2023-11-18T23:40:06;0.00;;;0.00;;
16906;SDS011;8570;52.380;4.654;2023-11-18T23:45:11;0.00;;;0.00;;
16906;SDS011;8570;52.380;4.654;2023-11-18T23:50:16;0.00;;;0.00;;
16906;SDS011;8570;52.380;4.654;2023-11-18T23:55:18;0.00;;;0.00;;
